sensor_id;sensor_type;location;lat;lon;timestamp;pressure;altitude;pressure_sealevel;temperature;humidity
50380;BME280;37474;59.468;18.040;2023-03-14T00:01:22;97104.63;;;4.18;100.00
50380;BME280;37474;59.468;18.040;2023-03-14T00:03:51;97094.09;;;4.21;100.00
50380;BME280;37474;59.468;18.040;2023-03-14T00:06:22;97100.19;;;4.20;100.00
50380;BME280;37474;59.468;18.040;2023-03-14T00:08:51;97095.44;;;4.16;100.00
50380;BME280;37474;59.468;18.040;2023-03-14T00:11:22;97097.91;;;4.27;100.00
50380;BME280;37474;59.468;18.040;2023-03-14T00:13:54;97089.81;;;4.22;100.00
50380;BME280;37474;59.468;18.040;2023-03-14T00:16:26;97084.72;;;4.32;100.00
50380;BME280;37474;59.468;18.040;2023-03-14T00:18:58;97085.59;;;4.21;100.00
50380;BME280;37474;59.468;18.040;2023-03-14T00:21:26;97080.63;;;4.19;100.00
50380;BME280;37474;59.468;18.040;2023-03-14T00:23:55;97086.13;;;4.15;100.00
50380;BME280;37474;59.468;18.040;2023-03-14T00:26:27;97085.16;;;4.16;100.00
50380;BME280;37474;59.468;18.040;2023-03-14T00:28:57;97070.56;;;4.07;100.00
50380;BME280;37474;59.468;18.040;2023-03-14T00:31:25;97084.56;;;4.23;100.00
50380;BME280;37474;59.468;18.040;2023-03-14T00:33:55;97077.47;;;4.16;100.00
50380;BME280;37474;59.468;18.040;2023-03-14T00:36:25;97075.97;;;4.34;100.00
50380;BME280;37474;59.468;18.040;2023-03-14T00:38:55;97080.94;;;4.36;100.00
50380;BME280;37474;59.468;18.040;2023-03-14T00:41:25;97080.28;;;4.34;100.00
50380;BME280;37474;59.468;18.040;2023-03-14T00:43:55;97073.63;;;4.31;100.00
50380;BME280;37474;59.468;18.040;2023-03-14T00:46:25;97074.06;;;4.36;100.00
50380;BME280;37474;59.468;18.040;2023-03-14T00:48:52;97051.66;;;4.29;100.00
50380;BME280;37474;59.468;18.040;2023-03-14T00:51:22;97070.44;;;4.39;100.00
50380;BME280;37474;59.468;18.040;2023-03-14T00:53:52;97072.88;;;4.40;100.00
50380;BME280;37474;59.468;18.040;2023-03-14T00:56:21;97059.97;;;4.21;100.00
50380;BME280;37474;59.468;18.040;2023-03-14T00:58:53;97066.19;;;4.18;100.00
50380;BME280;37474;59.468;18.040;2023-03-14T01:01:23;97052.69;;;4.26;100.00
50380;BME280;37474;59.468;18.040;2023-03-14T01:03:54;97061.53;;;4.33;100.00
50380;BME280;37474;59.468;18.040;2023-03-14T01:06:24;97020.28;;;4.15;100.00
50380;BME280;37474;59.468;18.040;2023-03-14T01:08:53;97060.16;;;4.29;100.00
50380;BME280;37474;59.468;18.040;2023-03-14T01:11:25;97054.22;;;4.29;100.00
50380;BME280;37474;59.468;18.040;2023-03-14T01:13:54;97014.66;;;3.91;100.00
50380;BME280;37474;59.468;18.040;2023-03-14T01:16:28;97061.75;;;4.30;100.00
50380;BME280;37474;59.468;18.040;2023-03-14T01:18:56;97065.28;;;4.29;100.00
50380;BME280;37474;59.468;18.040;2023-03-14T01:21:27;97063.38;;;4.31;100.00
50380;BME280;37474;59.468;18.040;2023-03-14T01:23:59;97057.50;;;4.40;100.00
50380;BME280;37474;59.468;18.040;2023-03-14T01:26:32;97059.09;;;4.41;100.00
50380;BME280;37474;59.468;18.040;2023-03-14T01:29:00;97024.69;;;4.04;100.00
50380;BME280;37474;59.468;18.040;2023-03-14T01:31:28;97059.09;;;4.41;100.00
50380;BME280;37474;59.468;18.040;2023-03-14T01:33:56;97058.13;;;4.33;100.00
50380;BME280;37474;59.468;18.040;2023-03-14T01:36:25;97055.06;;;4.39;100.00
50380;BME280;37474;59.468;18.040;2023-03-14T01:38:58;97066.56;;;4.44;100.00
50380;BME280;37474;59.468;18.040;2023-03-14T01:41:26;97061.81;;;4.49;100.00
50380;BME280;37474;59.468;18.040;2023-03-14T01:43:57;97051.94;;;4.35;100.00
50380;BME280;37474;59.468;18.040;2023-03-14T01:46:29;97063.28;;;4.42;100.00
50380;BME280;37474;59.468;18.040;2023-03-14T01:49:09;97066.00;;;4.41;100.00
50380;BME280;37474;59.468;18.040;2023-03-14T01:51:44;97071.53;;;4.46;100.00
50380;BME280;37474;59.468;18.040;2023-03-14T01:54:19;97076.75;;;4.35;100.00
50380;BME280;37474;59.468;18.040;2023-03-14T01:56:52;97077.06;;;4.41;100.00
50380;BME280;37474;59.468;18.040;2023-03-14T01:59:24;97081.38;;;4.41;100.00
50380;BME280;37474;59.468;18.040;2023-03-14T02:01:55;97077.63;;;4.45;100.00
50380;BME280;37474;59.468;18.040;2023-03-14T02:04:23;97072.50;;;4.55;100.00
50380;BME280;37474;59.468;18.040;2023-03-14T02:06:57;97091.91;;;4.47;100.00
50380;BME280;37474;59.468;18.040;2023-03-14T02:09:30;97093.97;;;4.54;100.00
50380;BME280;37474;59.468;18.040;2023-03-14T02:12:00;97097.72;;;4.49;100.00
50380;BME280;37474;59.468;18.040;2023-03-14T02:14:35;97106.94;;;4.52;100.00
50380;BME280;37474;59.468;18.040;2023-03-14T02:17:05;97083.41;;;4.47;100.00
50380;BME280;37474;59.468;18.040;2023-03-14T02:19:47;97101.53;;;4.55;100.00
50380;BME280;37474;59.468;18.040;2023-03-14T02:22:20;97110.44;;;4.61;100.00
50380;BME280;37474;59.468;18.040;2023-03-14T02:24:55;97108.41;;;4.55;100.00
50380;BME280;37474;59.468;18.040;2023-03-14T02:27:27;97117.91;;;4.64;100.00
50380;BME280;37474;59.468;18.040;2023-03-14T02:29:59;97108.72;;;4.61;100.00
50380;BME280;37474;59.468;18.040;2023-03-14T02:32:31;97110.53;;;4.80;100.00
50380;BME280;37474;59.468;18.040;2023-03-14T02:35:03;97110.81;;;4.87;100.00
50380;BME280;37474;59.468;18.040;2023-03-14T02:37:37;97105.38;;;4.80;100.00
50380;BME280;37474;59.468;18.040;2023-03-14T02:40:09;97102.41;;;4.75;100.00
50380;BME280;37474;59.468;18.040;2023-03-14T02:42:40;97103.34;;;4.74;100.00
50380;BME280;37474;59.468;18.040;2023-03-14T02:45:31;97110.88;;;4.66;100.00
50380;BME280;37474;59.468;18.040;2023-03-14T02:48:05;97118.38;;;4.79;100.00
50380;BME280;37474;59.468;18.040;2023-03-14T02:50:37;97117.97;;;4.83;100.00
50380;BME280;37474;59.468;18.040;2023-03-14T02:53:05;97125.91;;;4.80;100.00
50380;BME280;37474;59.468;18.040;2023-03-14T02:55:33;97108.84;;;4.60;100.00
50380;BME280;37474;59.468;18.040;2023-03-14T02:58:04;97118.22;;;4.80;100.00
50380;BME280;37474;59.468;18.040;2023-03-14T03:00:33;97120.78;;;4.80;100.00
50380;BME280;37474;59.468;18.040;2023-03-14T03:03:01;97120.94;;;4.79;100.00
50380;BME280;37474;59.468;18.040;2023-03-14T03:05:34;97132.19;;;4.97;100.00
50380;BME280;37474;59.468;18.040;2023-03-14T03:08:04;97134.50;;;5.00;100.00
50380;BME280;37474;59.468;18.040;2023-03-14T03:10:32;97128.53;;;4.90;100.00
50380;BME280;37474;59.468;18.040;2023-03-14T03:13:04;97137.03;;;4.90;100.00
50380;BME280;37474;59.468;18.040;2023-03-14T03:15:33;97139.84;;;4.87;100.00
50380;BME280;37474;59.468;18.040;2023-03-14T03:18:01;97152.16;;;4.93;100.00
50380;BME280;37474;59.468;18.040;2023-03-14T03:20:30;97148.63;;;4.85;100.00
50380;BME280;37474;59.468;18.040;2023-03-14T03:23:00;97154.25;;;4.69;100.00
50380;BME280;37474;59.468;18.040;2023-03-14T03:25:30;97152.53;;;4.79;100.00
50380;BME280;37474;59.468;18.040;2023-03-14T03:28:00;97156.16;;;4.76;100.00
50380;BME280;37474;59.468;18.040;2023-03-14T03:30:33;97153.47;;;4.78;100.00
50380;BME280;37474;59.468;18.040;2023-03-14T03:33:03;97172.69;;;4.84;100.00
50380;BME280;37474;59.468;18.040;2023-03-14T03:35:31;97174.03;;;4.88;100.00
50380;BME280;37474;59.468;18.040;2023-03-14T03:37:59;97176.16;;;4.83;100.00
50380;BME280;37474;59.468;18.040;2023-03-14T03:40:29;97176.44;;;4.80;100.00
50380;BME280;37474;59.468;18.040;2023-03-14T03:42:59;97173.19;;;4.78;100.00
50380;BME280;37474;59.468;18.040;2023-03-14T03:45:27;97179.56;;;4.83;100.00
50380;BME280;37474;59.468;18.040;2023-03-14T03:47:58;97178.34;;;4.87;100.00
50380;BME280;37474;59.468;18.040;2023-03-14T03:50:27;97180.81;;;4.89;100.00
50380;BME280;37474;59.468;18.040;2023-03-14T03:52:55;97178.63;;;4.94;100.00
50380;BME280;37474;59.468;18.040;2023-03-14T03:55:25;97177.09;;;4.82;100.00
50380;BME280;37474;59.468;18.040;2023-03-14T03:57:56;97176.47;;;4.89;100.00
50380;BME280;37474;59.468;18.040;2023-03-14T04:00:24;97186.19;;;4.86;100.00
50380;BME280;37474;59.468;18.040;2023-03-14T04:02:58;97177.50;;;4.77;100.00
50380;BME280;37474;59.468;18.040;2023-03-14T04:05:29;97184.19;;;4.89;100.00
50380;BME280;37474;59.468;18.040;2023-03-14T04:07:58;97175.66;;;4.98;100.00
50380;BME280;37474;59.468;18.040;2023-03-14T04:10:26;97194.03;;;4.94;100.00
50380;BME280;37474;59.468;18.040;2023-03-14T04:12:54;97202.97;;;4.99;100.00
50380;BME280;37474;59.468;18.040;2023-03-14T04:15:22;97210.09;;;4.86;100.00
50380;BME280;37474;59.468;18.040;2023-03-14T04:17:50;97203.66;;;4.71;100.00
50380;BME280;37474;59.468;18.040;2023-03-14T04:20:21;97206.16;;;4.82;100.00
50380;BME280;37474;59.468;18.040;2023-03-14T04:22:51;97202.47;;;4.75;100.00
50380;BME280;37474;59.468;18.040;2023-03-14T04:25:19;97213.16;;;4.80;100.00
50380;BME280;37474;59.468;18.040;2023-03-14T04:27:49;97204.00;;;4.78;100.00
50380;BME280;37474;59.468;18.040;2023-03-14T04:30:21;97213.16;;;4.80;100.00
50380;BME280;37474;59.468;18.040;2023-03-14T04:32:48;97216.47;;;4.92;100.00
50380;BME280;37474;59.468;18.040;2023-03-14T04:35:18;97209.59;;;4.71;100.00
50380;BME280;37474;59.468;18.040;2023-03-14T04:37:49;97210.91;;;4.87;100.00
50380;BME280;37474;59.468;18.040;2023-03-14T04:40:18;97204.13;;;4.55;100.00
50380;BME280;37474;59.468;18.040;2023-03-14T04:42:48;97230.84;;;4.73;100.00
50380;BME280;37474;59.468;18.040;2023-03-14T04:45:18;97226.81;;;4.81;100.00
50380;BME280;37474;59.468;18.040;2023-03-14T04:47:46;97230.97;;;4.72;100.00
50380;BME280;37474;59.468;18.040;2023-03-14T04:50:15;97234.03;;;4.66;100.00
50380;BME280;37474;59.468;18.040;2023-03-14T04:52:45;97248.88;;;4.62;100.00
50380;BME280;37474;59.468;18.040;2023-03-14T04:55:14;97258.06;;;4.65;100.00
50380;BME280;37474;59.468;18.040;2023-03-14T04:57:44;97266.63;;;4.75;100.00
50380;BME280;37474;59.468;18.040;2023-03-14T05:00:14;97262.00;;;4.69;100.00
50380;BME280;37474;59.468;18.040;2023-03-14T05:03:01;97269.91;;;4.56;100.00
50380;BME280;37474;59.468;18.040;2023-03-14T05:05:32;97268.53;;;4.52;100.00
50380;BME280;37474;59.468;18.040;2023-03-14T05:07:59;97279.22;;;4.57;100.00
50380;BME280;37474;59.468;18.040;2023-03-14T05:10:28;97275.59;;;4.60;100.00
50380;BME280;37474;59.468;18.040;2023-03-14T05:12:56;97285.91;;;4.48;100.00
50380;BME280;37474;59.468;18.040;2023-03-14T05:15:24;97291.41;;;4.44;100.00
50380;BME280;37474;59.468;18.040;2023-03-14T05:17:52;97278.91;;;4.50;100.00
50380;BME280;37474;59.468;18.040;2023-03-14T05:20:24;97292.66;;;4.49;100.00
50380;BME280;37474;59.468;18.040;2023-03-14T05:22:54;97297.91;;;4.48;100.00
50380;BME280;37474;59.468;18.040;2023-03-14T05:25:22;97310.44;;;4.41;100.00
50380;BME280;37474;59.468;18.040;2023-03-14T05:27:54;97313.22;;;4.38;100.00
50380;BME280;37474;59.468;18.040;2023-03-14T05:30:22;97332.25;;;4.36;100.00
50380;BME280;37474;59.468;18.040;2023-03-14T05:32:50;97337.97;;;4.39;100.00
50380;BME280;37474;59.468;18.040;2023-03-14T05:35:22;97346.06;;;4.56;100.00
50380;BME280;37474;59.468;18.040;2023-03-14T05:37:50;97350.75;;;4.50;100.00
50380;BME280;37474;59.468;18.040;2023-03-14T05:40:17;97353.53;;;4.47;100.00
50380;BME280;37474;59.468;18.040;2023-03-14T05:42:47;97353.47;;;4.38;100.00
50380;BME280;37474;59.468;18.040;2023-03-14T05:45:17;97368.13;;;4.47;100.00
50380;BME280;37474;59.468;18.040;2023-03-14T05:47:44;97366.69;;;4.33;100.00
50380;BME280;37474;59.468;18.040;2023-03-14T05:50:16;97372.72;;;4.32;100.00
50380;BME280;37474;59.468;18.040;2023-03-14T05:52:44;97376.09;;;4.33;100.00
50380;BME280;37474;59.468;18.040;2023-03-14T05:55:11;97390.66;;;4.32;100.00
50380;BME280;37474;59.468;18.040;2023-03-14T05:57:43;97405.59;;;4.27;100.00
50380;BME280;37474;59.468;18.040;2023-03-14T06:00:12;97400.78;;;4.45;100.00
50380;BME280;37474;59.468;18.040;2023-03-14T06:02:41;97411.72;;;4.47;100.00
50380;BME280;37474;59.468;18.040;2023-03-14T06:05:13;97417.56;;;4.38;100.00
50380;BME280;37474;59.468;18.040;2023-03-14T06:07:41;97427.00;;;4.48;100.00
50380;BME280;37474;59.468;18.040;2023-03-14T06:10:09;97371.63;;;4.14;100.00
50380;BME280;37474;59.468;18.040;2023-03-14T06:12:39;97426.03;;;4.49;100.00
50380;BME280;37474;59.468;18.040;2023-03-14T06:15:07;97418.47;;;4.48;100.00
50380;BME280;37474;59.468;18.040;2023-03-14T06:17:35;97435.50;;;4.49;100.00
50380;BME280;37474;59.468;18.040;2023-03-14T06:20:10;97435.88;;;4.44;100.00
50380;BME280;37474;59.468;18.040;2023-03-14T06:22:38;97446.34;;;4.53;100.00
50380;BME280;37474;59.468;18.040;2023-03-14T06:25:07;97458.09;;;4.55;100.00
50380;BME280;37474;59.468;18.040;2023-03-14T06:27:37;97458.09;;;4.55;100.00
50380;BME280;37474;59.468;18.040;2023-03-14T06:30:06;97471.81;;;4.65;100.00
50380;BME280;37474;59.468;18.040;2023-03-14T06:32:36;97481.72;;;4.70;100.00
50380;BME280;37474;59.468;18.040;2023-03-14T06:35:08;97482.88;;;4.77;100.00
50380;BME280;37474;59.468;18.040;2023-03-14T06:37:36;97487.56;;;4.72;100.00
50380;BME280;37474;59.468;18.040;2023-03-14T06:40:07;97494.09;;;4.65;100.00
50380;BME280;37474;59.468;18.040;2023-03-14T06:42:37;97498.66;;;4.72;100.00
50380;BME280;37474;59.468;18.040;2023-03-14T06:45:22;97471.56;;;4.36;100.00
50380;BME280;37474;59.468;18.040;2023-03-14T06:47:50;97497.75;;;4.62;100.00
50380;BME280;37474;59.468;18.040;2023-03-14T06:50:19;97511.16;;;4.55;100.00
50380;BME280;37474;59.468;18.040;2023-03-14T06:52:48;97516.06;;;4.58;100.00
50380;BME280;37474;59.468;18.040;2023-03-14T06:55:18;97516.72;;;4.71;100.00
50380;BME280;37474;59.468;18.040;2023-03-14T06:57:48;97514.44;;;4.57;100.00
50380;BME280;37474;59.468;18.040;2023-03-14T07:00:16;97531.81;;;4.53;100.00
50380;BME280;37474;59.468;18.040;2023-03-14T07:02:48;97540.78;;;4.47;100.00
50380;BME280;37474;59.468;18.040;2023-03-14T07:05:16;97551.75;;;4.49;100.00
50380;BME280;37474;59.468;18.040;2023-03-14T07:07:45;97555.97;;;4.50;100.00
50380;BME280;37474;59.468;18.040;2023-03-14T07:10:20;97556.84;;;4.61;100.00
50380;BME280;37474;59.468;18.040;2023-03-14T07:12:50;97567.59;;;4.55;100.00
50380;BME280;37474;59.468;18.040;2023-03-14T07:15:19;97584.16;;;4.73;100.00
50380;BME280;37474;59.468;18.040;2023-03-14T07:17:47;97584.13;;;4.84;100.00
50380;BME280;37474;59.468;18.040;2023-03-14T07:20:16;97578.00;;;5.08;100.00
50380;BME280;37474;59.468;18.040;2023-03-14T07:22:47;97587.59;;;5.06;100.00
50380;BME280;37474;59.468;18.040;2023-03-14T07:25:15;97605.44;;;5.07;100.00
50380;BME280;37474;59.468;18.040;2023-03-14T07:27:43;97615.88;;;4.61;100.00
50380;BME280;37474;59.468;18.040;2023-03-14T07:30:12;97615.88;;;4.49;100.00
50380;BME280;37474;59.468;18.040;2023-03-14T07:32:40;97621.09;;;4.14;100.00
50380;BME280;37474;59.468;18.040;2023-03-14T07:35:25;97628.53;;;3.84;100.00
50380;BME280;37474;59.468;18.040;2023-03-14T07:37:58;97649.97;;;3.59;100.00
50380;BME280;37474;59.468;18.040;2023-03-14T07:40:28;97659.72;;;3.78;100.00
50380;BME280;37474;59.468;18.040;2023-03-14T07:43:13;97666.22;;;3.47;100.00
50380;BME280;37474;59.468;18.040;2023-03-14T07:45:45;97668.09;;;3.44;100.00
50380;BME280;37474;59.468;18.040;2023-03-14T07:48:16;97674.84;;;3.46;100.00
50380;BME280;37474;59.468;18.040;2023-03-14T07:50:48;97671.22;;;3.48;100.00
50380;BME280;37474;59.468;18.040;2023-03-14T07:53:17;97683.00;;;3.75;100.00
50380;BME280;37474;59.468;18.040;2023-03-14T07:55:45;97680.00;;;3.92;100.00
50380;BME280;37474;59.468;18.040;2023-03-14T07:58:15;97682.94;;;3.98;100.00
50380;BME280;37474;59.468;18.040;2023-03-14T08:00:43;97680.69;;;4.18;100.00
50380;BME280;37474;59.468;18.040;2023-03-14T08:03:13;97679.06;;;4.17;100.00
50380;BME280;37474;59.468;18.040;2023-03-14T08:05:43;97677.06;;;4.20;100.00
50380;BME280;37474;59.468;18.040;2023-03-14T08:08:19;97691.13;;;4.04;100.00
50380;BME280;37474;59.468;18.040;2023-03-14T08:10:50;97706.75;;;4.01;100.00
50380;BME280;37474;59.468;18.040;2023-03-14T08:13:18;97700.47;;;3.81;100.00
50380;BME280;37474;59.468;18.040;2023-03-14T08:15:48;97713.28;;;3.81;100.00
50380;BME280;37474;59.468;18.040;2023-03-14T08:18:19;97704.41;;;4.09;100.00
50380;BME280;37474;59.468;18.040;2023-03-14T08:20:47;97707.84;;;4.32;100.00
50380;BME280;37474;59.468;18.040;2023-03-14T08:23:16;97718.38;;;4.05;100.00
50380;BME280;37474;59.468;18.040;2023-03-14T08:25:48;97708.31;;;3.90;100.00
50380;BME280;37474;59.468;18.040;2023-03-14T08:28:18;97720.41;;;4.12;100.00
50380;BME280;37474;59.468;18.040;2023-03-14T08:30:45;97715.19;;;4.36;99.45
50380;BME280;37474;59.468;18.040;2023-03-14T08:33:13;97717.56;;;4.50;97.43
50380;BME280;37474;59.468;18.040;2023-03-14T08:35:43;97707.50;;;4.36;95.67
50380;BME280;37474;59.468;18.040;2023-03-14T08:38:11;97712.53;;;4.49;96.54
50380;BME280;37474;59.468;18.040;2023-03-14T08:40:42;97735.63;;;4.60;94.74
50380;BME280;37474;59.468;18.040;2023-03-14T08:43:10;97722.00;;;4.71;94.15
50380;BME280;37474;59.468;18.040;2023-03-14T08:45:38;97717.94;;;4.80;93.10
50380;BME280;37474;59.468;18.040;2023-03-14T08:48:06;97728.44;;;4.88;91.51
50380;BME280;37474;59.468;18.040;2023-03-14T08:50:33;97726.09;;;5.07;90.04
50380;BME280;37474;59.468;18.040;2023-03-14T08:53:01;97717.78;;;5.26;89.94
50380;BME280;37474;59.468;18.040;2023-03-14T08:55:29;97735.31;;;4.98;89.07
50380;BME280;37474;59.468;18.040;2023-03-14T08:57:58;97720.03;;;4.74;90.95
50380;BME280;37474;59.468;18.040;2023-03-14T09:00:26;97718.28;;;4.97;89.94
50380;BME280;37474;59.468;18.040;2023-03-14T09:02:54;97732.41;;;4.69;91.22
50380;BME280;37474;59.468;18.040;2023-03-14T09:05:22;97721.31;;;4.58;90.80
50380;BME280;37474;59.468;18.040;2023-03-14T09:07:50;97722.13;;;4.69;90.37
50380;BME280;37474;59.468;18.040;2023-03-14T09:10:18;97742.53;;;4.71;91.17
50380;BME280;37474;59.468;18.040;2023-03-14T09:12:45;97734.00;;;5.26;88.67
50380;BME280;37474;59.468;18.040;2023-03-14T09:15:15;97735.41;;;5.30;87.28
50380;BME280;37474;59.468;18.040;2023-03-14T09:17:42;97734.28;;;5.01;86.82
50380;BME280;37474;59.468;18.040;2023-03-14T09:20:28;97730.88;;;5.12;87.54
50380;BME280;37474;59.468;18.040;2023-03-14T09:22:56;97740.56;;;5.08;87.32
50380;BME280;37474;59.468;18.040;2023-03-14T09:25:23;97740.44;;;5.10;87.03
50380;BME280;37474;59.468;18.040;2023-03-14T09:27:51;97735.56;;;4.95;89.33
50380;BME280;37474;59.468;18.040;2023-03-14T09:30:20;97747.22;;;4.88;89.06
50380;BME280;37474;59.468;18.040;2023-03-14T09:32:48;97744.38;;;4.46;92.01
50380;BME280;37474;59.468;18.040;2023-03-14T09:35:16;97751.25;;;4.11;93.94
50380;BME280;37474;59.468;18.040;2023-03-14T09:37:46;97759.63;;;4.02;96.54
50380;BME280;37474;59.468;18.040;2023-03-14T09:40:16;97736.44;;;4.03;95.49
50380;BME280;37474;59.468;18.040;2023-03-14T09:42:44;97767.69;;;4.55;92.92
50380;BME280;37474;59.468;18.040;2023-03-14T09:45:16;97770.56;;;4.96;90.54
50380;BME280;37474;59.468;18.040;2023-03-14T09:47:50;97782.25;;;5.00;89.52
50380;BME280;37474;59.468;18.040;2023-03-14T09:50:26;97777.78;;;5.36;87.59
50380;BME280;37474;59.468;18.040;2023-03-14T09:53:02;97783.84;;;5.57;85.63
50380;BME280;37474;59.468;18.040;2023-03-14T09:55:31;97797.06;;;5.30;85.26
50380;BME280;37474;59.468;18.040;2023-03-14T09:58:04;97804.28;;;5.25;84.50
50380;BME280;37474;59.468;18.040;2023-03-14T10:00:36;97800.44;;;5.42;82.42
50380;BME280;37474;59.468;18.040;2023-03-14T10:03:22;97797.75;;;5.44;82.39
50380;BME280;37474;59.468;18.040;2023-03-14T10:05:51;97799.03;;;5.16;82.89
50380;BME280;37474;59.468;18.040;2023-03-14T10:08:20;97800.31;;;4.88;84.03
50380;BME280;37474;59.468;18.040;2023-03-14T10:10:48;97802.03;;;5.66;80.47
50380;BME280;37474;59.468;18.040;2023-03-14T10:13:19;97812.97;;;5.90;78.90
50380;BME280;37474;59.468;18.040;2023-03-14T10:15:51;97819.44;;;6.28;77.46
50380;BME280;37474;59.468;18.040;2023-03-14T10:18:22;97818.84;;;5.70;78.56
50380;BME280;37474;59.468;18.040;2023-03-14T10:21:02;97817.94;;;5.60;78.64
50380;BME280;37474;59.468;18.040;2023-03-14T10:23:32;97815.00;;;5.75;77.82
50380;BME280;37474;59.468;18.040;2023-03-14T10:26:06;97828.63;;;5.98;77.10
50380;BME280;37474;59.468;18.040;2023-03-14T10:28:38;97808.88;;;5.22;78.41
50380;BME280;37474;59.468;18.040;2023-03-14T10:31:06;97826.38;;;5.39;80.54
50380;BME280;37474;59.468;18.040;2023-03-14T10:33:38;97837.13;;;5.55;79.33
50380;BME280;37474;59.468;18.040;2023-03-14T10:36:18;97847.97;;;5.37;78.84
50380;BME280;37474;59.468;18.040;2023-03-14T10:38:49;97843.88;;;5.45;79.12
50380;BME280;37474;59.468;18.040;2023-03-14T10:41:23;97845.38;;;5.70;78.09
50380;BME280;37474;59.468;18.040;2023-03-14T10:43:56;97838.75;;;5.45;78.16
50380;BME280;37474;59.468;18.040;2023-03-14T10:46:30;97836.16;;;5.68;77.76
50380;BME280;37474;59.468;18.040;2023-03-14T10:49:05;97835.06;;;6.04;76.27
50380;BME280;37474;59.468;18.040;2023-03-14T10:51:35;97844.53;;;5.81;76.49
50380;BME280;37474;59.468;18.040;2023-03-14T10:54:13;97857.19;;;5.73;76.93
50380;BME280;37474;59.468;18.040;2023-03-14T10:56:44;97858.81;;;5.18;78.16
50380;BME280;37474;59.468;18.040;2023-03-14T10:59:15;97851.00;;;5.19;78.88
50380;BME280;37474;59.468;18.040;2023-03-14T11:01:50;97856.34;;;5.05;79.94
50380;BME280;37474;59.468;18.040;2023-03-14T11:04:45;97860.25;;;5.44;78.21
50380;BME280;37474;59.468;18.040;2023-03-14T11:07:26;97856.50;;;5.37;77.63
50380;BME280;37474;59.468;18.040;2023-03-14T11:10:03;97861.75;;;5.47;77.80
50380;BME280;37474;59.468;18.040;2023-03-14T11:12:43;97868.75;;;5.34;78.55
50380;BME280;37474;59.468;18.040;2023-03-14T11:15:18;97843.03;;;4.89;79.29
50380;BME280;37474;59.468;18.040;2023-03-14T11:17:59;97874.69;;;5.12;78.83
50380;BME280;37474;59.468;18.040;2023-03-14T11:20:40;97855.44;;;5.17;78.74
50380;BME280;37474;59.468;18.040;2023-03-14T11:23:13;97884.41;;;5.53;78.27
50380;BME280;37474;59.468;18.040;2023-03-14T11:25:54;97891.28;;;5.75;76.56
50380;BME280;37474;59.468;18.040;2023-03-14T11:28:36;97888.03;;;5.62;77.46
50380;BME280;37474;59.468;18.040;2023-03-14T11:31:16;97893.19;;;5.62;76.77
50380;BME280;37474;59.468;18.040;2023-03-14T11:33:55;97888.50;;;5.22;78.59
50380;BME280;37474;59.468;18.040;2023-03-14T11:36:30;97856.81;;;5.10;79.02
50380;BME280;37474;59.468;18.040;2023-03-14T11:39:08;97892.13;;;5.42;78.28
50380;BME280;37474;59.468;18.040;2023-03-14T11:41:43;97896.66;;;5.72;77.36
50380;BME280;37474;59.468;18.040;2023-03-14T11:44:18;97900.41;;;6.13;77.00
50380;BME280;37474;59.468;18.040;2023-03-14T11:46:51;97895.50;;;5.76;76.75
50380;BME280;37474;59.468;18.040;2023-03-14T11:49:29;97901.72;;;5.96;75.67
50380;BME280;37474;59.468;18.040;2023-03-14T11:52:03;97908.13;;;5.90;75.63
50380;BME280;37474;59.468;18.040;2023-03-14T11:54:39;97880.53;;;5.25;76.67
50380;BME280;37474;59.468;18.040;2023-03-14T11:57:16;97913.00;;;5.26;78.71
50380;BME280;37474;59.468;18.040;2023-03-14T11:59:50;97922.66;;;5.00;79.51
50380;BME280;37474;59.468;18.040;2023-03-14T12:02:23;97917.13;;;4.93;80.63
50380;BME280;37474;59.468;18.040;2023-03-14T12:05:20;97928.31;;;4.92;81.03
50380;BME280;37474;59.468;18.040;2023-03-14T12:08:14;97932.94;;;4.52;82.85
50380;BME280;37474;59.468;18.040;2023-03-14T12:10:51;97925.94;;;4.54;83.12
50380;BME280;37474;59.468;18.040;2023-03-14T12:13:21;97908.13;;;4.29;83.66
50380;BME280;37474;59.468;18.040;2023-03-14T12:15:53;97940.22;;;4.34;83.47
50380;BME280;37474;59.468;18.040;2023-03-14T12:18:27;97937.25;;;4.52;83.64
50380;BME280;37474;59.468;18.040;2023-03-14T12:20:58;97936.09;;;4.32;84.28
50380;BME280;37474;59.468;18.040;2023-03-14T12:23:35;97938.31;;;4.12;84.51
50380;BME280;37474;59.468;18.040;2023-03-14T12:26:13;97946.16;;;4.35;84.61
50380;BME280;37474;59.468;18.040;2023-03-14T12:28:49;97947.19;;;4.32;84.58
50380;BME280;37474;59.468;18.040;2023-03-14T12:31:38;97941.06;;;4.22;84.90
50380;BME280;37474;59.468;18.040;2023-03-14T12:34:30;97941.34;;;4.30;84.12
50380;BME280;37474;59.468;18.040;2023-03-14T12:37:04;97946.03;;;4.36;84.84
50380;BME280;37474;59.468;18.040;2023-03-14T12:39:40;97949.66;;;4.58;83.97
50380;BME280;37474;59.468;18.040;2023-03-14T12:42:14;97945.44;;;4.81;82.14
50380;BME280;37474;59.468;18.040;2023-03-14T12:44:47;97945.91;;;4.86;81.49
50380;BME280;37474;59.468;18.040;2023-03-14T12:47:52;97939.56;;;5.02;80.99
50380;BME280;37474;59.468;18.040;2023-03-14T12:50:30;97938.50;;;5.05;80.19
50380;BME280;37474;59.468;18.040;2023-03-14T12:53:41;97937.13;;;4.77;82.36
50380;BME280;37474;59.468;18.040;2023-03-14T12:56:28;97942.66;;;4.60;83.98
50380;BME280;37474;59.468;18.040;2023-03-14T12:59:30;97917.94;;;4.35;84.16
50380;BME280;37474;59.468;18.040;2023-03-14T13:02:01;97938.56;;;4.33;86.26
50380;BME280;37474;59.468;18.040;2023-03-14T13:04:33;97922.75;;;4.39;86.33
50380;BME280;37474;59.468;18.040;2023-03-14T13:07:11;97943.91;;;4.54;86.22
50380;BME280;37474;59.468;18.040;2023-03-14T13:10:00;97946.47;;;4.30;85.60
50380;BME280;37474;59.468;18.040;2023-03-14T13:12:38;97954.28;;;4.53;84.87
50380;BME280;37474;59.468;18.040;2023-03-14T13:15:17;97945.00;;;4.63;85.79
50380;BME280;37474;59.468;18.040;2023-03-14T13:17:49;97955.59;;;4.34;85.94